createdAt,value
2017-03-09T00:01:58.879Z,0
2017-03-09T00:12:13.338Z,0
2017-03-09T00:22:27.765Z,0
2017-03-09T00:32:42.618Z,0
2017-03-09T00:42:56.889Z,0
2017-03-09T00:53:10.197Z,0
2017-03-09T01:03:24.868Z,0
2017-03-09T01:13:39.476Z,0
2017-03-09T01:23:53.552Z,0
2017-03-09T01:34:08.675Z,0
2017-03-09T01:44:21.872Z,0
2017-03-09T01:54:35.183Z,0
2017-03-09T02:04:48.508Z,0
2017-03-09T02:15:02.548Z,0
2017-03-09T02:25:16.300Z,0
2017-03-09T02:35:31.058Z,0
2017-03-09T02:45:45.146Z,0
2017-03-09T02:55:58.452Z,0
2017-03-09T03:06:11.994Z,0
2017-03-09T03:16:25.741Z,0
2017-03-09T03:26:46.059Z,0
2017-03-09T03:36:54.077Z,0
2017-03-09T03:47:08.760Z,0
2017-03-09T03:57:22.206Z,0
2017-03-09T04:07:35.627Z,0
2017-03-09T04:17:55.046Z,0
2017-03-09T04:28:04.181Z,0
2017-03-09T04:38:24.763Z,0
2017-03-09T04:48:31.324Z,0
2017-03-09T04:58:45.561Z,0
2017-03-09T05:08:59.993Z,0
2017-03-09T05:19:14.608Z,0
2017-03-09T05:29:30.021Z,0
2017-03-09T05:39:42.389Z,0
2017-03-09T05:49:57.229Z,5
2017-03-09T06:00:11.446Z,10
2017-03-09T06:10:26.253Z,20
2017-03-09T06:20:41.190Z,30
2017-03-09T06:30:55.087Z,55
2017-03-09T06:41:08.943Z,75
2017-03-09T06:51:22.865Z,90
2017-03-09T07:01:36.916Z,115
2017-03-09T07:11:50.812Z,150
2017-03-09T07:22:04.955Z,165
2017-03-09T07:32:19.559Z,195
2017-03-09T07:42:33.551Z,235
2017-03-09T07:52:48.471Z,275
2017-03-09T08:03:07.931Z,275
2017-03-09T08:13:17.359Z,325
2017-03-09T08:23:31.458Z,485
2017-03-09T08:33:46.330Z,460
2017-03-09T08:44:02.505Z,750
2017-03-09T08:54:14.499Z,485
2017-03-09T09:04:28.007Z,495
2017-03-09T09:14:41.843Z,600
2017-03-09T09:24:56.335Z,495
2017-03-09T09:35:10.560Z,580
2017-03-09T09:45:25.815Z,465
2017-03-09T09:55:40.418Z,390
2017-03-09T10:05:53.850Z,515
2017-03-09T10:16:10.780Z,360
2017-03-09T10:26:21.689Z,315
2017-03-09T10:36:36.775Z,310
2017-03-09T10:46:58.721Z,355
2017-03-09T10:57:05.899Z,660
2017-03-09T11:07:20.971Z,385
2017-03-09T11:18:25.308Z,630
2017-03-09T11:27:49.496Z,395
2017-03-09T11:38:03.576Z,295
2017-03-09T11:48:18.487Z,250
2017-03-09T11:58:32.995Z,280
2017-03-09T12:08:52.604Z,330
2017-03-09T12:19:02.192Z,650
2017-03-09T12:29:21.793Z,470
2017-03-09T12:39:31.375Z,200
2017-03-09T12:49:45.978Z,295
2017-03-09T13:00:00.874Z,205
2017-03-09T13:10:14.484Z,200
2017-03-09T13:20:28.729Z,290
2017-03-09T13:30:42.301Z,310
2017-03-09T13:41:02.002Z,220
2017-03-09T13:51:20.128Z,315
2017-03-09T14:01:26.081Z,480
2017-03-09T14:11:40.406Z,260
2017-03-09T14:21:53.898Z,270
2017-03-09T14:32:08.245Z,60
2017-03-09T14:42:22.533Z,270
2017-03-09T15:02:51.350Z,250
2017-03-09T15:13:06.130Z,125
2017-03-09T15:23:21.196Z,375
2017-03-09T15:33:35.469Z,300
2017-03-09T15:43:50.570Z,530
2017-03-09T15:54:04.932Z,520
2017-03-09T16:04:19.691Z,510
2017-03-09T16:14:33.031Z,210
2017-03-09T16:24:47.390Z,140
2017-03-09T16:35:02.653Z,135
2017-03-09T16:45:16.334Z,75
2017-03-09T16:55:30.975Z,65
2017-03-09T17:05:45.932Z,50
2017-03-09T17:16:00.450Z,25
2017-03-09T17:26:14.530Z,10
2017-03-09T17:36:29.389Z,0
2017-03-09T17:46:44.251Z,0
2017-03-09T17:56:57.684Z,0
2017-03-09T18:07:11.006Z,0
2017-03-09T18:17:24.147Z,0
2017-03-09T18:27:38.281Z,0
2017-03-09T18:37:51.496Z,0
2017-03-09T18:48:05.849Z,0
2017-03-09T18:58:19.863Z,0
2017-03-09T19:08:33.983Z,0
2017-03-09T19:18:47.856Z,0
2017-03-09T19:29:02.881Z,0
2017-03-09T19:39:16.545Z,0
2017-03-09T19:49:29.929Z,0
2017-03-09T19:59:44.297Z,0
2017-03-09T20:09:59.091Z,0
2017-03-09T20:20:12.916Z,0
2017-03-09T20:30:26.410Z,0
2017-03-09T20:40:39.619Z,0
2017-03-09T20:50:54.596Z,0
2017-03-09T21:01:15.495Z,0
2017-03-09T21:11:40.349Z,0
2017-03-09T21:21:36.033Z,0
2017-03-09T21:31:50.081Z,0
2017-03-09T21:42:03.283Z,0
2017-03-09T21:52:17.699Z,0
2017-03-09T22:02:31.046Z,0
2017-03-09T22:12:45.780Z,0
2017-03-09T22:22:58.944Z,0
2017-03-09T22:33:12.017Z,0
2017-03-09T22:43:26.732Z,0
2017-03-09T22:53:42.137Z,0
2017-03-09T23:03:53.865Z,0
2017-03-09T23:14:07.828Z,0
2017-03-09T23:24:21.340Z,0
2017-03-09T23:34:34.619Z,0
2017-03-09T23:44:49.145Z,0
2017-03-09T23:55:02.905Z,0
